Terminal Aerodrome Forecast
Issued by NWS Austin/San Antonio, TX

Home | Current Version | Previous Version | Text Only | Print | Product List | Glossary On
Versions: 1 2 3 4 5 6 7 8 9 10 11 12 13 14 15 16 17 18
000
FTUS44 KEWX 052337
TAFAUS
TAF
KAUS 052337Z 0600/0706 18012G20KT P6SM SCT040
     FM060100 17013KT P6SM FEW050
     FM060700 16010KT P6SM OVC012
     FM061500 18012KT P6SM BKN015
     FM061700 17015KT P6SM BKN040
     FM062000 16015G25KT P6SM SCT050=

USA.gov is the U.S. government's official web portal to all federal, state and local government web resources and services.